»·PEaware :: N147AT KTNP-KSAN

N147AT :: KTNP-KSAN

FLIGHT INFORMATION

Flight Status: Arrived
Operator: Privately registered:
United States
More flights under this callsign
Pilot: Anonymous 18613 (18613)
Aircraft: CESSNA 172 SKYHAWK
(C172)
More flights by this aircraft type
Origin: KTNP Twentynine Palms
United States
Destination: KSAN San Diego Intl-Lindbergh
United States
More flights between these airports :: More routes between these airports
Route: +TNP V514 CANNO
File this flight plan on PilotEdge
Remarks:
Altitude:
(Current/Filed)
9,000ft
Speed:
(Current/Filed)
120kts
Departed: 01-Oct-18 10:20 AM
Arrived: 01-Oct-18 11:45 AM
Distance/Time
Traveled:
105nm/1:24
Distance/Time
To Go:
Arrived

Flight Plot

Page will automatically refresh every two minutes.

Flight plan parsing failed; only flown route is shown


Map Options




Map Legend


Flown Route
Filed Route
Departure Airport
Arrival Airport
Navaid (VOR, NDB)
Fix

Horizontal Profiles

Position Reports

Time Latitude Longitude Heading Altitude Ground
Speed
01-Oct-18 10:04 34.135892 -115.942029 179 1883ft 0kts
01-Oct-18 10:05 34.135892 -115.942029 179 1883ft 0kts
01-Oct-18 10:06 34.135892 -115.942029 179 1883ft 0kts
01-Oct-18 10:07 34.135892 -115.942029 179 1883ft 0kts
01-Oct-18 10:08 34.135892 -115.942029 179 1883ft 0kts
01-Oct-18 10:09 34.135892 -115.942029 179 1883ft 0kts
01-Oct-18 10:10 34.135892 -115.942029 179 1883ft 0kts
01-Oct-18 10:11 34.135892 -115.942029 179 1883ft 0kts
01-Oct-18 10:12 34.135892 -115.942029 179 1883ft 0kts
01-Oct-18 10:13 34.135890 -115.942030 188 1883ft 0kts
01-Oct-18 10:14 34.135293 -115.944653 253 1888ft 9kts
01-Oct-18 10:15 34.135214 -115.949985 269 1890ft 18kts
01-Oct-18 10:16 34.134954 -115.953392 184 1891ft 0kts
01-Oct-18 10:17 34.134954 -115.953392 184 1891ft 0kts
01-Oct-18 10:18 34.134954 -115.953392 184 1891ft 0kts
01-Oct-18 10:19 34.134954 -115.953392 184 1891ft 0kts
01-Oct-18 10:20 34.134954 -115.953392 184 1891ft 0kts
01-Oct-18 10:21 34.134409 -115.953349 145 1891ft 7kts
01-Oct-18 10:22 34.134308 -115.933460 96 2247ft 72kts
01-Oct-18 10:23 34.130409 -115.909434 103 2892ft 74kts
01-Oct-18 10:24 34.126232 -115.885148 93 3495ft 75kts
01-Oct-18 10:25 34.122483 -115.861275 112 4071ft 74kts
01-Oct-18 10:26 34.120344 -115.836093 88 4617ft 77kts
01-Oct-18 10:27 34.120544 -115.811011 116 5103ft 75kts
01-Oct-18 10:28 34.114632 -115.786758 97 5570ft 78kts
01-Oct-18 10:29 34.115406 -115.760916 94 5992ft 82kts
01-Oct-18 10:30 34.112192 -115.733276 95 6415ft 84kts
01-Oct-18 10:31 34.104262 -115.713876 218 6771ft 90kts
01-Oct-18 10:32 34.114457 -115.740655 265 7112ft 99kts
01-Oct-18 10:33 34.112444 -115.772076 236 7513ft 92kts
01-Oct-18 10:34 34.099171 -115.758793 107 7849ft 91kts
01-Oct-18 10:35 34.093796 -115.729473 94 8220ft 93kts
01-Oct-18 10:36 34.110651 -115.730856 287 8554ft 98kts
01-Oct-18 10:37 34.112179 -115.761497 256 8948ft 89kts
01-Oct-18 10:38 34.100927 -115.757144 81 9269ft 93kts
01-Oct-18 10:39 34.109573 -115.727965 40 9616ft 99kts
01-Oct-18 10:40 34.111830 -115.748984 266 9891ft 88kts
01-Oct-18 10:41 34.108214 -115.775371 198 10107ft 92kts
01-Oct-18 10:42 34.082257 -115.792504 210 9952ft 114kts
01-Oct-18 10:43 34.057427 -115.814901 212 9944ft 111kts
01-Oct-18 10:44 34.032315 -115.836111 202 9899ft 110kts
01-Oct-18 10:45 34.008020 -115.858071 209 9902ft 108kts
01-Oct-18 10:46 33.982124 -115.877115 207 9879ft 108kts
01-Oct-18 10:47 33.957473 -115.897872 215 9868ft 108kts
01-Oct-18 10:48 33.933417 -115.919615 214 9859ft 107kts
01-Oct-18 10:49 33.909455 -115.940531 213 9848ft 106kts
01-Oct-18 10:50 33.886863 -115.959280 211 10021ft 94kts
01-Oct-18 10:51 33.863255 -115.976342 207 10033ft 102kts
01-Oct-18 10:52 33.838957 -115.995184 211 10008ft 107kts
01-Oct-18 10:53 33.814003 -116.014716 210 9989ft 106kts
01-Oct-18 10:54 33.789394 -116.034074 211 9993ft 106kts
01-Oct-18 10:55 33.764789 -116.053315 211 9997ft 105kts
01-Oct-18 10:56 33.740185 -116.072494 211 10001ft 105kts
01-Oct-18 10:57 33.715287 -116.091042 209 10004ft 105kts
01-Oct-18 10:58 33.690473 -116.109604 210 10007ft 105kts
01-Oct-18 10:59 33.665783 -116.128154 208 10009ft 105kts
01-Oct-18 11:00 33.641169 -116.146137 211 10010ft 105kts
01-Oct-18 11:01 33.616716 -116.165316 213 10011ft 105kts
01-Oct-18 11:02 33.594021 -116.187725 216 10011ft 106kts
01-Oct-18 11:03 33.570678 -116.208841 214 10012ft 105kts
01-Oct-18 11:04 33.547034 -116.229801 214 10011ft 105kts
01-Oct-18 11:05 33.523436 -116.250522 213 10011ft 105kts
01-Oct-18 11:06 33.499854 -116.271116 214 10010ft 106kts
01-Oct-18 11:07 33.477705 -116.290400 213 10008ft 106kts
01-Oct-18 11:08 33.453939 -116.311050 213 10006ft 106kts
01-Oct-18 11:09 33.430359 -116.331132 213 10003ft 106kts
01-Oct-18 11:10 33.406365 -116.351509 213 10000ft 106kts
01-Oct-18 11:11 33.382576 -116.371981 213 9997ft 106kts
01-Oct-18 11:12 33.358750 -116.392616 213 9993ft 105kts
01-Oct-18 11:13 33.335016 -116.413233 214 9988ft 106kts
01-Oct-18 11:14 33.311206 -116.433946 213 9984ft 106kts
01-Oct-18 11:15 33.287558 -116.454522 213 9979ft 107kts
01-Oct-18 11:16 33.263460 -116.475491 213 9975ft 107kts
01-Oct-18 11:17 33.239211 -116.496581 213 9962ft 109kts
01-Oct-18 11:18 33.214554 -116.518921 215 9907ft 110kts
01-Oct-18 11:19 33.190962 -116.542286 215 9902ft 110kts
01-Oct-18 11:20 33.166834 -116.564853 216 9898ft 109kts
01-Oct-18 11:21 33.141394 -116.584542 198 9890ft 110kts
01-Oct-18 11:22 33.110515 -116.585516 184 9885ft 111kts
01-Oct-18 11:23 33.079790 -116.587517 187 9878ft 110kts
01-Oct-18 11:24 33.050975 -116.600841 200 9874ft 111kts
01-Oct-18 11:25 33.022647 -116.616409 200 9875ft 112kts
01-Oct-18 11:26 32.994133 -116.632352 200 9877ft 114kts
01-Oct-18 11:27 32.965143 -116.648687 200 9883ft 116kts
01-Oct-18 11:28 32.936250 -116.664967 199 9877ft 117kts
01-Oct-18 11:29 32.902672 -116.683335 201 9125ft 145kts
01-Oct-18 11:30 32.866626 -116.702851 202 8068ft 141kts
01-Oct-18 11:31 32.831748 -116.722535 202 6880ft 137kts
01-Oct-18 11:32 32.797738 -116.741583 205 5737ft 134kts
01-Oct-18 11:33 32.764916 -116.756824 199 4921ft 123kts
01-Oct-18 11:34 32.734939 -116.771294 202 4874ft 115kts
01-Oct-18 11:35 32.706422 -116.788513 239 4974ft 118kts
01-Oct-18 11:36 32.694622 -116.826058 255 4787ft 116kts
01-Oct-18 11:37 32.686681 -116.862195 255 4685ft 116kts
01-Oct-18 11:38 32.674494 -116.899741 250 4196ft 125kts
01-Oct-18 11:39 32.671915 -116.937613 288 3787ft 111kts
01-Oct-18 11:40 32.681641 -116.973473 289 3456ft 107kts
01-Oct-18 11:41 32.691202 -117.009810 297 2879ft 123kts
01-Oct-18 11:42 32.698428 -117.047195 283 2557ft 117kts
01-Oct-18 11:43 32.708123 -117.085508 286 1911ft 124kts
01-Oct-18 11:44 32.716964 -117.122357 288 1249ft 113kts
01-Oct-18 11:45 32.725675 -117.157557 288 585ft 107kts
01-Oct-18 11:46 32.732526 -117.185522 286 21ft 67kts
01-Oct-18 11:47 32.735224 -117.197780 255 21ft 22kts
01-Oct-18 11:48 32.734879 -117.198356 191 21ft 0kts
01-Oct-18 11:49 32.734365 -117.197267 106 21ft 16kts
01-Oct-18 11:50 32.732974 -117.194269 127 21ft 2kts
01-Oct-18 11:51 32.732974 -117.194269 127 21ft 2kts
01-Oct-18 11:52 32.732974 -117.194269 127 21ft 2kts
01-Oct-18 11:53 32.732974 -117.194269 127 21ft 2kts
01-Oct-18 11:54 32.732974 -117.194269 127 21ft 2kts
01-Oct-18 11:55 32.732974 -117.194269 127 21ft 2kts
01-Oct-18 11:56 32.732974 -117.194269 127 21ft 2kts
01-Oct-18 11:57 32.732974 -117.194269 127 21ft 2kts
01-Oct-18 11:58 32.732974 -117.194269 127 21ft 2kts
01-Oct-18 11:59 32.732974 -117.194269 127 21ft 2kts
01-Oct-18 12:00 32.732974 -117.194269 127 21ft 2kts
01-Oct-18 12:01 32.732974 -117.194269 127 21ft 2kts

Navigation Log

Ident Type
Flight plan parsing failed, navigation log unavailable